createdAt,value
2023-03-17T00:01:23.789Z,4.72
2023-03-17T00:03:51.616Z,4.60
2023-03-17T00:06:25.598Z,3.97
2023-03-17T00:08:52.779Z,4.38
2023-03-17T00:11:21.185Z,4.40
2023-03-17T00:13:49.056Z,5.15
2023-03-17T00:16:20.797Z,6.32
2023-03-17T00:18:49.574Z,6.80
2023-03-17T00:21:24.678Z,5.80
2023-03-17T00:23:51.973Z,5.72
2023-03-17T00:26:20.363Z,6.28
2023-03-17T00:28:48.660Z,5.28
2023-03-17T00:31:20.814Z,4.70
2023-03-17T00:33:49.786Z,5.78
2023-03-17T00:36:21.524Z,5.03
2023-03-17T00:38:49.766Z,4.70
2023-03-17T00:41:18.339Z,5.13
2023-03-17T00:43:45.746Z,4.70
2023-03-17T00:46:16.663Z,4.07
2023-03-17T00:48:45.194Z,4.60
2023-03-17T00:51:13.250Z,3.92
2023-03-17T00:53:40.632Z,5.00
2023-03-17T00:56:17.688Z,4.10
2023-03-17T00:58:45.799Z,5.30
2023-03-17T01:01:13.009Z,5.13
2023-03-17T01:03:41.584Z,4.18
2023-03-17T01:06:12.603Z,4.10
2023-03-17T01:08:41.308Z,3.88
2023-03-17T01:11:16.371Z,3.85
2023-03-17T01:13:43.554Z,3.97
2023-03-17T01:16:12.430Z,4.03
2023-03-17T01:18:40.030Z,3.67
2023-03-17T01:21:08.058Z,4.60
2023-03-17T01:23:35.930Z,4.38
2023-03-17T01:26:03.380Z,4.40
2023-03-17T01:28:30.754Z,3.83
2023-03-17T01:30:57.951Z,3.95
2023-03-17T01:33:26.557Z,4.43
2023-03-17T01:35:53.719Z,4.13
2023-03-17T01:38:20.820Z,4.20
2023-03-17T01:40:50.655Z,4.40
2023-03-17T01:43:24.418Z,3.92
2023-03-17T01:46:21.009Z,4.70
2023-03-17T01:49:19.440Z,4.70
2023-03-17T01:52:07.620Z,4.88
2023-03-17T01:54:34.974Z,4.20
2023-03-17T01:57:10.715Z,4.07
2023-03-17T01:59:45.655Z,4.30
2023-03-17T02:02:18.118Z,4.70
2023-03-17T02:04:45.242Z,3.60
2023-03-17T02:07:13.481Z,3.65
2023-03-17T02:09:42.044Z,3.90
2023-03-17T02:12:10.557Z,4.05
2023-03-17T02:14:37.689Z,4.00
2023-03-17T02:17:04.861Z,4.03
2023-03-17T02:19:32.129Z,4.28
2023-03-17T02:22:00.599Z,3.83
2023-03-17T02:24:35.103Z,4.18
2023-03-17T02:29:36.098Z,4.65
2023-03-17T02:32:04.396Z,5.10
2023-03-17T02:34:32.755Z,4.60
2023-03-17T02:37:00.126Z,4.30
2023-03-17T02:39:27.695Z,4.60
2023-03-17T02:41:54.840Z,4.93
2023-03-17T02:44:22.033Z,5.07
2023-03-17T02:46:49.115Z,4.40
2023-03-17T02:49:17.645Z,5.00
2023-03-17T02:51:45.574Z,4.63
2023-03-17T02:54:12.707Z,4.65
2023-03-17T02:56:39.903Z,4.95
2023-03-17T02:59:07.257Z,4.30
2023-03-17T03:01:34.728Z,4.68
2023-03-17T03:04:02.357Z,5.43
2023-03-17T03:06:29.572Z,4.75
2023-03-17T03:08:56.761Z,4.55
2023-03-17T03:11:24.069Z,4.30
2023-03-17T03:13:53.016Z,4.50
2023-03-17T03:16:20.218Z,5.55
2023-03-17T03:18:47.339Z,4.47
2023-03-17T03:21:14.654Z,4.93
2023-03-17T03:23:41.765Z,4.95
2023-03-17T03:26:09.358Z,4.25
2023-03-17T03:28:36.614Z,4.70
2023-03-17T03:31:04.219Z,5.13
2023-03-17T03:33:31.440Z,4.38
2023-03-17T03:35:59.533Z,5.03
2023-03-17T03:38:27.896Z,4.18
2023-03-17T03:40:55.144Z,4.18
2023-03-17T03:43:24.069Z,4.30
2023-03-17T03:45:52.140Z,4.57
2023-03-17T03:48:19.298Z,4.20
2023-03-17T03:50:46.801Z,4.35
2023-03-17T03:53:14.546Z,4.25
2023-03-17T03:55:42.005Z,4.63
2023-03-17T03:58:09.156Z,4.70
2023-03-17T04:00:37.320Z,4.47
2023-03-17T04:03:04.489Z,5.15
2023-03-17T04:05:31.848Z,5.15
2023-03-17T04:07:59.298Z,4.72
2023-03-17T04:10:26.543Z,4.65
2023-03-17T04:12:53.720Z,5.05
2023-03-17T04:15:21.227Z,4.72
2023-03-17T04:17:48.390Z,4.47
2023-03-17T04:20:17.076Z,5.03
2023-03-17T04:22:44.889Z,5.10
2023-03-17T04:25:14.671Z,5.20
2023-03-17T04:27:42.653Z,5.25
2023-03-17T04:30:13.836Z,4.95
2023-03-17T04:32:41.753Z,5.45
2023-03-17T04:35:15.158Z,4.97
2023-03-17T04:37:42.390Z,5.22
2023-03-17T04:40:12.175Z,4.78
2023-03-17T04:42:40.040Z,4.78
2023-03-17T04:45:09.510Z,4.57
2023-03-17T04:47:37.398Z,5.10
2023-03-17T04:50:05.432Z,5.28
2023-03-17T04:52:32.478Z,5.55
2023-03-17T04:54:59.634Z,5.20
2023-03-17T04:57:26.775Z,4.38
2023-03-17T04:59:53.922Z,5.68
2023-03-17T05:02:21.076Z,5.55
2023-03-17T05:04:48.193Z,7.75
2023-03-17T05:07:15.961Z,5.40
2023-03-17T05:09:43.120Z,5.53
2023-03-17T05:12:10.992Z,5.40
2023-03-17T05:14:38.248Z,5.28
2023-03-17T05:17:05.483Z,5.35
2023-03-17T05:19:32.767Z,5.25
2023-03-17T05:21:59.803Z,5.80
2023-03-17T05:24:27.175Z,5.93
2023-03-17T05:26:54.457Z,5.72
2023-03-17T05:29:21.557Z,4.80
2023-03-17T05:31:48.898Z,5.03
2023-03-17T05:34:16.299Z,5.00
2023-03-17T05:36:44.670Z,5.13
2023-03-17T05:39:14.412Z,6.07
2023-03-17T05:41:42.411Z,6.18
2023-03-17T05:44:10.473Z,6.93
2023-03-17T05:46:37.595Z,7.07
2023-03-17T05:49:04.957Z,6.25
2023-03-17T05:51:32.295Z,5.03
2023-03-17T05:53:59.392Z,4.95
2023-03-17T05:56:33.347Z,4.57
2023-03-17T05:59:01.805Z,3.05
2023-03-17T06:01:30.088Z,4.68
2023-03-17T06:03:57.760Z,4.50
2023-03-17T06:06:25.931Z,5.30
2023-03-17T06:08:53.397Z,4.70
2023-03-17T06:11:21.773Z,5.97
2023-03-17T06:13:49.205Z,5.13
2023-03-17T06:16:16.729Z,5.78
2023-03-17T06:18:45.876Z,5.40
2023-03-17T06:21:13.752Z,5.18
2023-03-17T06:23:41.073Z,5.72
2023-03-17T06:26:08.312Z,5.47
2023-03-17T06:28:35.855Z,5.90
2023-03-17T06:31:05.326Z,5.50
2023-03-17T06:33:34.652Z,5.38
2023-03-17T06:36:02.014Z,5.65
2023-03-17T06:38:29.211Z,5.82
2023-03-17T06:40:56.566Z,5.13
2023-03-17T06:43:25.017Z,5.82
2023-03-17T06:45:52.852Z,6.28
2023-03-17T06:48:20.036Z,5.45
2023-03-17T06:50:49.183Z,5.75
2023-03-17T06:53:16.789Z,6.45
2023-03-17T06:55:43.871Z,6.10
2023-03-17T06:58:13.249Z,7.00
2023-03-17T07:00:40.506Z,6.28
2023-03-17T07:03:08.121Z,6.63
2023-03-17T07:05:35.407Z,6.93
2023-03-17T07:08:02.496Z,7.50
2023-03-17T07:10:30.465Z,8.05
2023-03-17T07:12:57.868Z,8.10
2023-03-17T07:15:25.851Z,8.48
2023-03-17T07:17:53.025Z,7.57
2023-03-17T07:20:21.209Z,8.35
2023-03-17T07:22:48.384Z,8.68
2023-03-17T07:25:15.817Z,8.27
2023-03-17T07:27:43.076Z,9.00
2023-03-17T07:30:10.938Z,9.27
2023-03-17T07:32:38.064Z,9.73
2023-03-17T07:35:06.227Z,8.75
2023-03-17T07:37:33.331Z,8.45
2023-03-17T07:40:00.384Z,8.80
2023-03-17T07:42:29.121Z,8.90
2023-03-17T07:44:56.270Z,8.93
2023-03-17T07:47:23.399Z,8.48
2023-03-17T07:49:50.465Z,8.50
2023-03-17T07:52:17.652Z,8.88
2023-03-17T07:54:44.780Z,9.90
2023-03-17T07:57:12.436Z,8.80
2023-03-17T07:59:40.254Z,8.98
2023-03-17T08:02:08.499Z,9.18
2023-03-17T08:04:35.763Z,8.65
2023-03-17T08:07:03.351Z,9.52
2023-03-17T08:09:30.710Z,9.13
2023-03-17T08:11:57.997Z,9.27
2023-03-17T08:14:25.137Z,9.50
2023-03-17T08:16:54.296Z,9.75
2023-03-17T08:19:22.228Z,9.45
2023-03-17T08:21:49.324Z,8.63
2023-03-17T08:24:16.966Z,8.93
2023-03-17T08:26:44.061Z,8.98
2023-03-17T08:29:11.150Z,8.95
2023-03-17T08:31:38.702Z,9.88
2023-03-17T08:34:05.814Z,9.43
2023-03-17T08:36:33.246Z,9.77
2023-03-17T08:39:00.466Z,9.48
2023-03-17T08:41:28.465Z,8.88
2023-03-17T08:43:56.339Z,9.65
2023-03-17T08:46:27.229Z,9.35
2023-03-17T08:48:57.018Z,10.05
2023-03-17T08:51:27.006Z,9.38
2023-03-17T08:53:55.164Z,9.20
2023-03-17T08:56:22.946Z,9.20
2023-03-17T08:58:51.963Z,9.43
2023-03-17T09:01:21.046Z,9.63
2023-03-17T09:03:49.637Z,9.80
2023-03-17T09:06:16.930Z,9.57
2023-03-17T09:08:47.625Z,9.57
2023-03-17T09:11:18.140Z,10.20
2023-03-17T09:13:46.537Z,9.88
2023-03-17T09:16:14.856Z,9.45
2023-03-17T09:18:42.509Z,9.38
2023-03-17T09:21:12.010Z,9.68
2023-03-17T09:23:39.259Z,10.75
2023-03-17T09:26:06.640Z,10.18
2023-03-17T09:28:34.185Z,9.38
2023-03-17T09:31:03.058Z,10.05
2023-03-17T09:33:31.008Z,10.07
2023-03-17T09:35:58.214Z,9.43
2023-03-17T09:38:27.660Z,9.05
2023-03-17T09:41:01.552Z,8.75
2023-03-17T09:43:37.257Z,9.47
2023-03-17T09:46:44.150Z,7.97
2023-03-17T09:49:16.355Z,8.95
2023-03-17T09:51:46.471Z,7.85
2023-03-17T09:54:34.969Z,7.07
2023-03-17T09:57:29.616Z,7.45
2023-03-17T10:00:06.283Z,4.25
2023-03-17T10:02:37.821Z,3.45
2023-03-17T10:05:20.717Z,3.33
2023-03-17T10:08:22.681Z,3.50
2023-03-17T10:10:56.204Z,3.08
2023-03-17T10:13:39.441Z,3.80
2023-03-17T10:16:11.662Z,3.45
2023-03-17T10:18:48.240Z,3.10
2023-03-17T10:21:20.833Z,3.03
2023-03-17T10:23:48.446Z,3.45
2023-03-17T10:26:23.201Z,3.88
2023-03-17T10:28:50.568Z,3.95
2023-03-17T10:31:21.374Z,3.83
2023-03-17T10:33:52.665Z,3.70
2023-03-17T10:36:38.673Z,3.50
2023-03-17T10:39:07.778Z,3.10
2023-03-17T10:41:41.064Z,3.28
2023-03-17T10:44:20.386Z,3.28
2023-03-17T10:46:54.567Z,3.38
2023-03-17T10:49:24.286Z,3.10
2023-03-17T10:51:54.066Z,3.88
2023-03-17T10:54:24.744Z,3.60
2023-03-17T10:57:01.610Z,3.45
2023-03-17T10:59:33.212Z,3.15
2023-03-17T11:02:06.706Z,3.38
2023-03-17T11:04:36.619Z,3.95
2023-03-17T11:07:15.464Z,4.00
2023-03-17T11:09:42.703Z,3.60
2023-03-17T11:12:28.625Z,3.60
2023-03-17T11:15:01.032Z,3.75
2023-03-17T11:17:57.575Z,4.20
2023-03-17T11:20:52.773Z,4.60
2023-03-17T11:23:33.018Z,4.25
2023-03-17T11:26:08.797Z,4.00
2023-03-17T11:28:41.198Z,4.80
2023-03-17T11:31:13.114Z,4.63
2023-03-17T11:34:07.094Z,4.28
2023-03-17T11:36:41.279Z,4.82
2023-03-17T11:39:27.504Z,4.47
2023-03-17T11:42:11.578Z,4.05
2023-03-17T11:44:46.998Z,3.90
2023-03-17T11:47:28.527Z,4.72
2023-03-17T11:50:28.456Z,5.10
2023-03-17T11:52:56.954Z,5.65
2023-03-17T11:55:56.079Z,4.80
2023-03-17T11:58:44.176Z,4.75
2023-03-17T12:01:27.274Z,4.78
2023-03-17T12:04:16.492Z,5.00
2023-03-17T12:06:50.904Z,5.72
2023-03-17T12:09:41.166Z,5.53
2023-03-17T12:12:10.995Z,5.85
2023-03-17T12:14:46.470Z,5.50
2023-03-17T12:17:25.840Z,5.35
2023-03-17T12:20:18.585Z,5.40
2023-03-17T12:23:10.462Z,5.30
2023-03-17T12:25:57.894Z,5.55
2023-03-17T12:28:32.996Z,5.28
2023-03-17T12:31:07.485Z,5.70
2023-03-17T12:33:44.932Z,5.50
2023-03-17T12:36:16.390Z,5.65
2023-03-17T12:38:48.645Z,5.80
2023-03-17T12:41:37.090Z,5.55
2023-03-17T12:44:27.302Z,5.75
2023-03-17T12:47:21.762Z,5.55
2023-03-17T12:49:56.986Z,5.23
2023-03-17T12:52:55.338Z,5.95
2023-03-17T12:55:27.054Z,5.90
2023-03-17T12:58:16.286Z,5.70
2023-03-17T13:01:03.857Z,5.80
2023-03-17T13:03:34.467Z,5.35
2023-03-17T13:06:07.468Z,6.50
2023-03-17T13:08:39.841Z,7.00
2023-03-17T13:11:17.078Z,6.70
2023-03-17T13:14:15.526Z,7.00
2023-03-17T13:16:47.539Z,7.15
2023-03-17T13:19:26.970Z,6.60
2023-03-17T13:22:05.205Z,6.90
2023-03-17T13:24:50.272Z,7.15
2023-03-17T13:30:25.909Z,7.13
2023-03-17T13:32:57.233Z,6.93
2023-03-17T13:35:47.842Z,6.40
2023-03-17T13:38:34.833Z,6.22
2023-03-17T13:41:21.943Z,6.03
2023-03-17T13:44:29.107Z,6.45
2023-03-17T13:47:08.950Z,6.38
2023-03-17T13:49:37.269Z,6.60
2023-03-17T13:52:12.662Z,6.40
2023-03-17T13:54:49.796Z,6.10
2023-03-17T13:57:37.556Z,6.00
2023-03-17T14:00:25.923Z,7.20
2023-03-17T14:03:03.590Z,6.25
2023-03-17T14:05:36.257Z,6.47
2023-03-17T14:08:08.660Z,6.78
2023-03-17T14:10:36.276Z,6.50
2023-03-17T14:13:11.632Z,5.63
2023-03-17T14:15:50.325Z,6.72
2023-03-17T14:18:21.649Z,5.47
2023-03-17T14:20:58.489Z,6.07
2023-03-17T14:23:26.720Z,5.78
2023-03-17T14:25:57.054Z,6.10
2023-03-17T14:28:28.476Z,5.70
2023-03-17T14:31:02.369Z,6.22
2023-03-17T14:33:38.018Z,5.53
2023-03-17T14:36:09.249Z,5.35
2023-03-17T14:38:38.988Z,6.15
2023-03-17T14:41:07.459Z,6.10
2023-03-17T14:43:36.260Z,6.30
2023-03-17T14:46:06.220Z,6.15
2023-03-17T14:48:38.150Z,5.90
2023-03-17T14:51:15.529Z,5.57
2023-03-17T14:53:46.407Z,6.10
2023-03-17T14:56:14.028Z,5.60
2023-03-17T14:58:43.995Z,6.75
2023-03-17T15:01:20.232Z,6.15
2023-03-17T15:03:59.308Z,5.45
2023-03-17T15:06:30.672Z,6.13
2023-03-17T15:09:00.365Z,6.57
2023-03-17T15:11:37.930Z,5.53
2023-03-17T15:14:21.129Z,6.05
2023-03-17T15:16:52.565Z,5.75
2023-03-17T15:19:28.338Z,5.30
2023-03-17T15:21:59.922Z,5.60
2023-03-17T15:24:31.823Z,6.35
2023-03-17T15:27:02.730Z,5.68
2023-03-17T15:29:30.054Z,6.03
2023-03-17T15:32:07.033Z,5.35
2023-03-17T15:34:34.106Z,5.35
2023-03-17T15:37:01.690Z,5.60
2023-03-17T15:39:28.844Z,5.10
2023-03-17T15:41:55.848Z,5.65
2023-03-17T15:44:22.928Z,6.47
2023-03-17T15:46:50.065Z,5.80
2023-03-17T15:49:17.214Z,5.35
2023-03-17T15:51:44.244Z,6.00
2023-03-17T15:54:14.595Z,5.68
2023-03-17T15:56:43.392Z,5.63
2023-03-17T15:59:11.132Z,6.07
2023-03-17T16:01:39.673Z,5.47
2023-03-17T16:04:07.080Z,5.70
2023-03-17T16:06:35.675Z,5.10
2023-03-17T16:09:03.400Z,5.90
2023-03-17T16:11:32.000Z,5.70
2023-03-17T16:14:00.030Z,5.38
2023-03-17T16:16:36.781Z,5.40
2023-03-17T16:19:06.014Z,5.80
2023-03-17T16:21:33.238Z,5.40
2023-03-17T16:24:00.525Z,5.47
2023-03-17T16:26:27.654Z,4.78
2023-03-17T16:28:55.840Z,5.10
2023-03-17T16:31:30.815Z,5.00
2023-03-17T16:33:58.369Z,4.88
2023-03-17T16:36:26.377Z,4.90
2023-03-17T16:38:53.752Z,5.32
2023-03-17T16:41:27.463Z,5.30
2023-03-17T16:44:01.491Z,5.78
2023-03-17T16:46:34.600Z,5.53
2023-03-17T16:49:02.278Z,5.93
2023-03-17T16:51:29.674Z,5.75
2023-03-17T16:53:56.888Z,6.32
2023-03-17T16:56:27.247Z,6.65
2023-03-17T16:58:54.439Z,6.30
2023-03-17T17:01:24.925Z,5.82
2023-03-17T17:03:52.388Z,5.63
2023-03-17T17:06:21.324Z,6.38
2023-03-17T17:08:49.980Z,6.57
2023-03-17T17:11:18.897Z,6.53
2023-03-17T17:13:48.215Z,6.88
2023-03-17T17:16:22.444Z,6.35
2023-03-17T17:18:49.659Z,7.05
2023-03-17T17:21:16.835Z,6.95
2023-03-17T17:23:43.970Z,6.93
2023-03-17T17:26:11.225Z,6.90
2023-03-17T17:28:40.262Z,6.88
2023-03-17T17:31:08.794Z,6.70
2023-03-17T17:33:37.131Z,6.05
2023-03-17T17:36:06.589Z,6.15
2023-03-17T17:38:33.841Z,6.55
2023-03-17T17:41:05.625Z,6.97
2023-03-17T17:43:33.102Z,6.75
2023-03-17T17:46:00.383Z,6.68
2023-03-17T17:48:28.365Z,6.68
2023-03-17T17:50:57.156Z,7.05
2023-03-17T17:53:24.763Z,7.40
2023-03-17T17:55:52.430Z,7.25
2023-03-17T17:58:22.513Z,6.45
2023-03-17T18:00:50.871Z,6.72
2023-03-17T18:03:22.391Z,6.35
2023-03-17T18:05:49.663Z,6.53
2023-03-17T18:08:17.477Z,6.82
2023-03-17T18:10:44.702Z,6.63
2023-03-17T18:13:12.497Z,6.10
2023-03-17T18:15:39.755Z,6.22
2023-03-17T18:18:07.356Z,6.95
2023-03-17T18:20:35.183Z,6.88
2023-03-17T18:23:02.823Z,6.80
2023-03-17T18:25:30.295Z,6.60
2023-03-17T18:27:58.213Z,7.07
2023-03-17T18:30:28.860Z,6.13
2023-03-17T18:33:02.712Z,6.65
2023-03-17T18:35:30.603Z,6.22
2023-03-17T18:37:58.231Z,6.25
2023-03-17T18:40:26.610Z,6.47
2023-03-17T18:42:55.353Z,6.80
2023-03-17T18:45:23.206Z,6.72
2023-03-17T18:47:50.459Z,7.20
2023-03-17T18:50:18.494Z,7.05
2023-03-17T18:52:46.239Z,7.25
2023-03-17T18:55:15.261Z,7.05
2023-03-17T18:57:44.774Z,6.47
2023-03-17T19:00:14.926Z,6.43
2023-03-17T19:02:42.237Z,7.30
2023-03-17T19:05:09.887Z,6.72
2023-03-17T19:07:40.133Z,6.57
2023-03-17T19:10:08.801Z,6.63
2023-03-17T19:12:36.470Z,6.75
2023-03-17T19:15:06.461Z,7.35
2023-03-17T19:17:34.179Z,6.93
2023-03-17T19:20:01.743Z,6.65
2023-03-17T19:22:29.233Z,7.03
2023-03-17T19:24:56.612Z,6.78
2023-03-17T19:27:24.009Z,7.30
2023-03-17T19:29:51.191Z,7.50
2023-03-17T19:32:18.511Z,7.28
2023-03-17T19:34:47.828Z,7.20
2023-03-17T19:37:15.916Z,7.07
2023-03-17T19:39:47.060Z,7.43
2023-03-17T19:42:14.500Z,7.15
2023-03-17T19:44:41.569Z,7.38
2023-03-17T19:47:08.736Z,7.35
2023-03-17T19:49:37.788Z,6.80
2023-03-17T19:52:06.583Z,7.03
2023-03-17T19:54:34.372Z,7.18
2023-03-17T19:57:01.527Z,6.97
2023-03-17T19:59:29.087Z,7.03
2023-03-17T20:01:57.105Z,6.60
2023-03-17T20:04:24.886Z,7.38
2023-03-17T20:06:55.814Z,7.90
2023-03-17T20:09:25.505Z,7.35
2023-03-17T20:11:53.685Z,6.68
2023-03-17T20:14:21.092Z,7.47
2023-03-17T20:16:48.606Z,6.95
2023-03-17T20:19:17.130Z,6.93
2023-03-17T20:21:44.383Z,6.57
2023-03-17T20:24:12.986Z,7.13
2023-03-17T20:26:41.797Z,7.18
2023-03-17T20:29:10.053Z,6.40
2023-03-17T20:31:38.836Z,6.55
2023-03-17T20:34:06.519Z,7.18
2023-03-17T20:36:33.899Z,7.18
2023-03-17T20:39:01.570Z,7.15
2023-03-17T20:41:29.486Z,7.32
2023-03-17T20:43:56.890Z,6.85
2023-03-17T20:46:25.838Z,7.13
2023-03-17T20:48:58.864Z,7.72
2023-03-17T20:51:27.432Z,7.20
2023-03-17T20:53:55.208Z,7.13
2023-03-17T20:56:24.261Z,6.97
2023-03-17T20:58:53.372Z,7.57
2023-03-17T21:01:21.577Z,7.40
2023-03-17T21:03:49.659Z,7.32
2023-03-17T21:06:17.654Z,7.10
2023-03-17T21:08:46.253Z,7.40
2023-03-17T21:11:19.326Z,7.70
2023-03-17T21:13:47.125Z,7.25
2023-03-17T21:16:20.439Z,7.70
2023-03-17T21:18:48.373Z,7.32
2023-03-17T21:21:16.693Z,7.85
2023-03-17T21:23:44.337Z,8.25
2023-03-17T21:26:12.582Z,8.10
2023-03-17T21:28:41.578Z,7.60
2023-03-17T21:31:10.020Z,8.13
2023-03-17T21:33:37.386Z,8.65
2023-03-17T21:36:05.949Z,8.65
2023-03-17T21:38:33.267Z,9.23
2023-03-17T21:41:21.310Z,9.98
2023-03-17T21:43:48.437Z,9.32
2023-03-17T21:46:15.545Z,9.32
2023-03-17T21:48:44.033Z,9.23
2023-03-17T21:51:11.796Z,10.38
2023-03-17T21:53:39.386Z,9.82
2023-03-17T21:56:06.866Z,10.10
2023-03-17T21:58:34.447Z,9.50
2023-03-17T22:01:01.629Z,9.43
2023-03-17T22:03:29.360Z,11.80
2023-03-17T22:05:56.838Z,10.52
2023-03-17T22:08:24.274Z,10.70
2023-03-17T22:10:51.946Z,9.93
2023-03-17T22:13:19.314Z,10.10
2023-03-17T22:15:46.343Z,11.02
2023-03-17T22:18:13.698Z,11.13
2023-03-17T22:20:41.376Z,11.05
2023-03-17T22:23:08.447Z,11.35
2023-03-17T22:25:36.251Z,11.25
2023-03-17T22:28:03.642Z,10.45
2023-03-17T22:30:31.688Z,10.05
2023-03-17T22:32:59.233Z,11.10
2023-03-17T22:35:27.338Z,11.15
2023-03-17T22:37:54.434Z,11.40
2023-03-17T22:40:21.714Z,10.93
2023-03-17T22:42:48.964Z,10.77
2023-03-17T22:45:16.592Z,10.73
2023-03-17T22:47:43.732Z,11.18
2023-03-17T22:50:11.922Z,10.13
2023-03-17T22:52:39.190Z,11.20
2023-03-17T22:55:07.757Z,10.77
2023-03-17T22:57:35.923Z,11.13
2023-03-17T23:00:08.858Z,10.50
2023-03-17T23:02:36.124Z,10.45
2023-03-17T23:05:03.395Z,10.35
2023-03-17T23:07:35.570Z,9.23
2023-03-17T23:10:10.042Z,10.25
2023-03-17T23:12:38.331Z,10.63
2023-03-17T23:15:06.823Z,10.93
2023-03-17T23:17:34.003Z,10.32
2023-03-17T23:20:01.211Z,10.38
2023-03-17T23:22:28.278Z,9.70
2023-03-17T23:24:55.357Z,10.25
2023-03-17T23:27:22.807Z,9.98
2023-03-17T23:29:50.138Z,9.77
2023-03-17T23:32:17.268Z,10.75
2023-03-17T23:34:44.908Z,10.38
2023-03-17T23:37:12.270Z,9.40
2023-03-17T23:39:40.317Z,10.70
2023-03-17T23:42:07.670Z,10.50
2023-03-17T23:44:34.701Z,9.55
2023-03-17T23:47:01.773Z,10.02
2023-03-17T23:49:28.986Z,9.40
2023-03-17T23:51:57.229Z,9.40
2023-03-17T23:54:24.533Z,9.27
2023-03-17T23:56:52.711Z,10.30
2023-03-17T23:59:20.275Z,9.63
